createdAt,value
2018-08-04T00:00:28.811Z,0
2018-08-04T00:01:44.770Z,0
2018-08-04T00:03:00.674Z,0
2018-08-04T00:04:16.564Z,0
2018-08-04T00:05:32.458Z,0
2018-08-04T00:06:48.379Z,0
2018-08-04T00:08:04.369Z,0
2018-08-04T00:09:20.238Z,0
2018-08-04T00:10:36.119Z,0
2018-08-04T00:11:52.090Z,0
2018-08-04T00:13:07.911Z,0
2018-08-04T00:14:23.797Z,0
2018-08-04T00:15:39.679Z,0
2018-08-04T00:16:55.608Z,0
2018-08-04T00:18:11.481Z,0
2018-08-04T00:19:27.333Z,0
2018-08-04T00:20:43.230Z,0
2018-08-04T00:21:59.104Z,0
2018-08-04T00:23:14.996Z,0
2018-08-04T00:24:30.849Z,0
2018-08-04T00:25:46.752Z,0
2018-08-04T00:27:02.656Z,0
2018-08-04T00:28:18.544Z,0
2018-08-04T00:29:34.522Z,0
2018-08-04T00:30:50.424Z,0
2018-08-04T00:32:06.301Z,0
2018-08-04T00:33:22.168Z,0
2018-08-04T00:34:38.025Z,0
2018-08-04T00:35:53.924Z,0
2018-08-04T00:37:09.820Z,0
2018-08-04T00:38:25.699Z,0
2018-08-04T00:39:42.471Z,0
2018-08-04T00:40:58.361Z,0
2018-08-04T00:42:14.238Z,0
2018-08-04T00:43:30.187Z,0
2018-08-04T00:44:46.064Z,0
2018-08-04T00:46:01.951Z,0
2018-08-04T00:47:17.874Z,0
2018-08-04T00:48:33.793Z,0
2018-08-04T00:49:49.682Z,0
2018-08-04T00:51:05.628Z,0
2018-08-04T00:52:21.534Z,0
2018-08-04T00:53:37.482Z,0
2018-08-04T00:54:53.375Z,0
2018-08-04T00:56:09.346Z,0
2018-08-04T00:57:25.222Z,0
2018-08-04T00:58:41.143Z,0
2018-08-04T00:59:57.056Z,0
2018-08-04T01:01:12.929Z,0
2018-08-04T01:02:28.845Z,0
2018-08-04T01:03:44.761Z,0
2018-08-04T01:05:00.657Z,0
2018-08-04T01:06:16.553Z,0
2018-08-04T01:07:32.443Z,0
2018-08-04T01:08:48.343Z,0
2018-08-04T01:10:04.231Z,0
2018-08-04T01:11:20.115Z,0
2018-08-04T01:12:36.049Z,0
2018-08-04T01:13:51.925Z,0
2018-08-04T01:15:07.841Z,0
2018-08-04T01:16:23.718Z,0
2018-08-04T01:17:39.571Z,0
2018-08-04T01:18:55.413Z,0
2018-08-04T01:20:11.296Z,0
2018-08-04T01:21:27.147Z,0
2018-08-04T01:22:43.034Z,0
2018-08-04T01:23:58.931Z,0
2018-08-04T01:25:14.849Z,0
2018-08-04T01:26:30.713Z,0
2018-08-04T01:27:46.595Z,0
2018-08-04T01:29:02.479Z,0
2018-08-04T01:30:18.368Z,0
2018-08-04T01:31:34.254Z,0
2018-08-04T01:32:50.142Z,0
2018-08-04T01:34:06.057Z,0
2018-08-04T01:35:21.898Z,0
2018-08-04T01:36:37.741Z,0
2018-08-04T01:37:53.607Z,0
2018-08-04T01:39:09.464Z,0
2018-08-04T01:40:25.441Z,0
2018-08-04T01:41:41.301Z,0
2018-08-04T01:42:57.191Z,0
2018-08-04T01:44:13.075Z,0
2018-08-04T01:45:28.954Z,0
2018-08-04T01:46:44.801Z,0
2018-08-04T01:48:00.677Z,0
2018-08-04T01:49:16.535Z,0
2018-08-04T01:50:32.370Z,0
2018-08-04T01:51:48.228Z,0
2018-08-04T01:53:04.119Z,0
2018-08-04T01:54:19.970Z,0
2018-08-04T01:55:35.819Z,0
2018-08-04T01:56:51.725Z,0
2018-08-04T01:58:07.585Z,0
2018-08-04T01:59:23.474Z,0
2018-08-04T02:00:39.337Z,0
2018-08-04T02:01:55.217Z,0
2018-08-04T02:03:11.081Z,0
2018-08-04T02:04:26.929Z,0
2018-08-04T02:05:42.805Z,0
2018-08-04T02:06:58.652Z,0
2018-08-04T02:08:14.532Z,0
2018-08-04T02:09:30.393Z,0
2018-08-04T02:10:46.263Z,0
2018-08-04T02:12:02.170Z,0
2018-08-04T02:13:18.104Z,0
2018-08-04T02:14:34.070Z,0
2018-08-04T02:15:49.967Z,0
2018-08-04T02:17:05.832Z,0
2018-08-04T02:18:21.707Z,0
2018-08-04T02:19:37.560Z,0
2018-08-04T02:20:53.437Z,0
2018-08-04T02:22:09.308Z,0
2018-08-04T02:23:25.207Z,0
2018-08-04T02:24:41.055Z,0
2018-08-04T02:25:56.915Z,0
2018-08-04T02:27:12.759Z,0
2018-08-04T02:28:28.626Z,0
2018-08-04T02:29:44.571Z,0
2018-08-04T02:31:00.444Z,0
2018-08-04T02:32:16.303Z,0
2018-08-04T02:33:32.177Z,0
2018-08-04T02:34:48.056Z,0
2018-08-04T02:36:03.914Z,0
2018-08-04T02:37:19.774Z,0
2018-08-04T02:38:36.660Z,0
2018-08-04T02:39:52.615Z,0
2018-08-04T02:41:08.491Z,0
2018-08-04T02:42:24.371Z,0
2018-08-04T02:43:40.279Z,0
2018-08-04T02:44:56.148Z,0
2018-08-04T02:46:12.049Z,0
2018-08-04T02:47:27.883Z,0
2018-08-04T02:48:43.839Z,0
2018-08-04T02:49:59.726Z,0
2018-08-04T02:51:15.598Z,0
2018-08-04T02:52:31.466Z,0
2018-08-04T02:53:48.343Z,0
2018-08-04T02:55:04.230Z,0
2018-08-04T02:56:20.106Z,0
2018-08-04T02:57:35.976Z,0
2018-08-04T02:58:51.871Z,0
2018-08-04T03:00:07.751Z,0
2018-08-04T03:01:23.599Z,0
2018-08-04T03:02:39.490Z,0
2018-08-04T03:03:55.335Z,0
2018-08-04T03:05:11.239Z,0
2018-08-04T03:06:27.114Z,0
2018-08-04T03:07:42.976Z,0
2018-08-04T03:08:58.873Z,0
2018-08-04T03:10:14.721Z,0
2018-08-04T03:11:30.598Z,0
2018-08-04T03:12:46.443Z,0
2018-08-04T03:14:02.361Z,0
2018-08-04T03:15:18.281Z,0
2018-08-04T03:16:34.136Z,0
2018-08-04T03:17:50.016Z,0
2018-08-04T03:19:05.885Z,1
2018-08-04T03:20:21.941Z,1
2018-08-04T03:21:37.815Z,1
2018-08-04T03:22:53.665Z,1
2018-08-04T03:24:09.544Z,1
2018-08-04T03:25:25.445Z,0
2018-08-04T03:26:41.311Z,1
2018-08-04T03:27:57.164Z,1
2018-08-04T03:29:13.021Z,1
2018-08-04T03:30:28.920Z,1
2018-08-04T03:31:44.753Z,1
2018-08-04T03:33:00.619Z,1
2018-08-04T03:34:16.492Z,2
2018-08-04T03:35:32.367Z,2
2018-08-04T03:36:49.224Z,3
2018-08-04T03:38:05.085Z,4
2018-08-04T03:39:20.947Z,4
2018-08-04T03:40:36.822Z,6
2018-08-04T03:41:52.683Z,8
2018-08-04T03:43:08.552Z,9
2018-08-04T03:44:24.398Z,11
2018-08-04T03:45:40.261Z,13
2018-08-04T03:46:56.161Z,16
2018-08-04T03:48:12.069Z,20
2018-08-04T03:49:27.941Z,24
2018-08-04T03:50:43.814Z,30
2018-08-04T03:51:59.665Z,36
2018-08-04T03:53:15.541Z,43
2018-08-04T03:54:31.409Z,51
2018-08-04T03:55:47.268Z,60
2018-08-04T03:57:03.198Z,71
2018-08-04T03:58:19.187Z,83
2018-08-04T03:59:35.081Z,95
2018-08-04T04:00:50.960Z,110
2018-08-04T04:02:06.854Z,125
2018-08-04T04:03:22.801Z,142
2018-08-04T04:04:38.693Z,159
2018-08-04T04:05:54.637Z,179
2018-08-04T04:07:10.449Z,199
2018-08-04T04:08:26.356Z,220
2018-08-04T04:09:42.436Z,242
2018-08-04T04:10:58.365Z,267
2018-08-04T04:12:14.266Z,291
2018-08-04T04:13:30.220Z,317
2018-08-04T04:14:46.125Z,343
2018-08-04T04:16:02.115Z,371
2018-08-04T04:17:18.070Z,401
2018-08-04T04:18:33.977Z,430
2018-08-04T04:19:50.108Z,461
2018-08-04T04:21:06.014Z,492
2018-08-04T04:22:22.018Z,524
2018-08-04T04:23:39.756Z,556
2018-08-04T04:24:55.647Z,589
2018-08-04T04:26:11.569Z,621
2018-08-04T04:27:27.475Z,655
2018-08-04T04:28:43.342Z,687
2018-08-04T04:29:59.228Z,721
2018-08-04T04:31:15.110Z,754
2018-08-04T04:32:30.992Z,788
2018-08-04T04:33:46.896Z,820
2018-08-04T04:35:02.820Z,853
2018-08-04T04:36:18.710Z,887
2018-08-04T04:37:34.787Z,920
2018-08-04T04:38:50.680Z,952
2018-08-04T04:40:06.554Z,984
2018-08-04T04:41:22.465Z,1016
2018-08-04T04:42:38.351Z,1048
2018-08-04T04:43:54.261Z,1078
2018-08-04T04:45:10.142Z,1109
2018-08-04T04:46:26.011Z,1139
2018-08-04T04:47:41.911Z,1169
2018-08-04T04:48:57.833Z,1200
2018-08-04T04:50:13.744Z,1228
2018-08-04T04:51:30.154Z,1258
2018-08-04T04:52:46.047Z,1287
2018-08-04T04:54:01.991Z,1316
2018-08-04T04:55:17.907Z,1345
2018-08-04T04:56:33.777Z,1375
2018-08-04T04:57:49.704Z,1403
2018-08-04T04:59:05.610Z,1430
2018-08-04T05:00:21.920Z,1456
2018-08-04T05:01:37.851Z,1481
2018-08-04T05:02:53.765Z,1507
2018-08-04T05:04:09.681Z,1532
2018-08-04T05:05:25.855Z,1556
2018-08-04T05:06:42.877Z,1581
2018-08-04T05:07:58.798Z,1605
2018-08-04T05:09:14.685Z,1628
2018-08-04T05:10:30.594Z,1649
2018-08-04T05:11:46.475Z,1671
2018-08-04T05:13:02.414Z,1694
2018-08-04T05:14:18.325Z,1717
2018-08-04T05:15:34.228Z,1739
2018-08-04T05:16:50.166Z,1761
2018-08-04T05:18:06.141Z,1783
2018-08-04T05:19:22.029Z,1804
2018-08-04T05:20:37.947Z,1823
2018-08-04T05:21:53.887Z,1844
2018-08-04T05:23:09.830Z,1861
2018-08-04T05:24:25.762Z,1881
2018-08-04T05:25:42.644Z,1901
2018-08-04T05:26:58.564Z,1920
2018-08-04T05:28:14.602Z,1940
2018-08-04T05:29:30.498Z,1958
2018-08-04T05:30:46.421Z,1976
2018-08-04T05:32:02.393Z,1997
2018-08-04T05:33:18.303Z,2018
2018-08-04T05:34:34.184Z,2035
2018-08-04T05:35:50.283Z,2053
2018-08-04T05:37:06.232Z,2072
2018-08-04T05:38:22.144Z,2089
2018-08-04T05:39:38.077Z,2108
2018-08-04T05:40:54.055Z,2126
2018-08-04T05:42:09.958Z,2142
2018-08-04T05:43:26.043Z,2161
2018-08-04T05:44:41.793Z,2175
2018-08-04T05:45:57.853Z,2197
2018-08-04T05:47:13.765Z,2209
2018-08-04T05:48:29.635Z,2224
2018-08-04T05:49:45.556Z,2239
2018-08-04T05:51:01.469Z,2256
2018-08-04T05:52:17.472Z,2275
2018-08-04T05:53:33.354Z,2291
2018-08-04T05:54:49.284Z,2305
2018-08-04T05:56:05.184Z,2321
2018-08-04T05:57:21.071Z,2334
2018-08-04T05:58:37.015Z,2354
2018-08-04T05:59:52.931Z,2369
2018-08-04T06:01:08.837Z,2391
2018-08-04T06:02:24.748Z,2405
2018-08-04T06:03:40.626Z,2422
2018-08-04T06:04:56.514Z,2443
2018-08-04T06:06:12.418Z,2457
2018-08-04T06:07:28.340Z,2474
2018-08-04T06:08:44.220Z,2490
2018-08-04T06:10:00.119Z,2501
2018-08-04T06:11:16.022Z,2522
2018-08-04T06:12:31.948Z,2549
2018-08-04T06:13:47.909Z,2555
2018-08-04T06:15:03.810Z,2573
2018-08-04T06:16:19.680Z,2591
2018-08-04T06:17:35.571Z,2607
2018-08-04T06:18:51.443Z,2623
2018-08-04T06:20:08.313Z,2646
2018-08-04T06:21:24.201Z,2657
2018-08-04T06:22:40.132Z,2679
2018-08-04T06:23:55.974Z,2696
2018-08-04T06:25:11.872Z,2715
2018-08-04T06:26:27.760Z,2733
2018-08-04T06:27:43.724Z,2750
2018-08-04T06:28:59.636Z,2771
2018-08-04T06:30:15.577Z,2789
2018-08-04T06:31:31.404Z,2811
2018-08-04T06:32:47.331Z,2837
2018-08-04T06:34:03.216Z,2858
2018-08-04T06:35:19.109Z,2878
2018-08-04T06:36:35.046Z,2903
2018-08-04T06:37:50.942Z,2924
2018-08-04T06:39:06.851Z,2944
2018-08-04T06:40:22.802Z,2962
2018-08-04T06:41:38.883Z,2985
2018-08-04T06:42:54.834Z,3009
2018-08-04T06:44:10.756Z,3028
2018-08-04T06:45:26.709Z,3042
2018-08-04T06:46:42.600Z,3058
2018-08-04T06:47:58.634Z,3076
2018-08-04T06:49:14.603Z,3097
2018-08-04T06:50:30.550Z,3115
2018-08-04T06:51:46.538Z,3149
2018-08-04T06:53:02.463Z,3158
2018-08-04T06:54:18.395Z,3178
2018-08-04T06:55:34.444Z,3203
2018-08-04T06:56:50.344Z,3225
2018-08-04T06:58:06.318Z,3247
2018-08-04T06:59:22.209Z,3270
2018-08-04T07:00:38.103Z,3286
2018-08-04T07:01:53.969Z,3318
2018-08-04T07:03:09.875Z,3346
2018-08-04T07:04:25.899Z,3384
2018-08-04T07:05:41.810Z,3414
2018-08-04T07:06:57.704Z,3453
2018-08-04T07:08:13.571Z,3499
2018-08-04T07:09:29.477Z,3552
2018-08-04T07:10:45.411Z,3608
2018-08-04T07:12:01.316Z,3658
2018-08-04T07:13:17.213Z,3703
2018-08-04T07:14:33.093Z,3745
2018-08-04T07:15:49.034Z,3787
2018-08-04T07:17:04.972Z,3832
2018-08-04T07:18:20.892Z,3856
2018-08-04T07:19:36.786Z,3898
2018-08-04T07:20:52.732Z,3924
2018-08-04T07:22:08.639Z,3923
2018-08-04T07:23:24.517Z,3965
2018-08-04T07:24:40.427Z,3981
2018-08-04T07:25:56.394Z,3999
2018-08-04T07:28:54.162Z,4034
2018-08-04T07:30:10.081Z,4073
2018-08-04T07:31:25.981Z,4096
2018-08-04T07:32:41.897Z,4112
2018-08-04T07:33:57.816Z,4135
2018-08-04T07:35:13.795Z,4159
2018-08-04T07:36:29.681Z,4185
2018-08-04T07:37:45.653Z,4210
2018-08-04T07:39:01.573Z,4243
2018-08-04T07:40:17.634Z,4295
2018-08-04T07:41:33.509Z,4300
2018-08-04T07:42:49.368Z,4321
2018-08-04T07:44:05.247Z,4361
2018-08-04T07:45:21.206Z,4384
2018-08-04T07:46:37.160Z,4413
2018-08-04T07:47:53.066Z,4428
2018-08-04T07:49:09.056Z,4454
2018-08-04T07:50:24.833Z,4487
2018-08-04T07:51:40.807Z,4501
2018-08-04T07:52:56.706Z,4534
2018-08-04T07:54:12.626Z,4568
2018-08-04T07:55:28.574Z,4587
2018-08-04T07:56:44.512Z,4602
2018-08-04T07:58:00.433Z,4640
2018-08-04T07:59:16.358Z,4660
2018-08-04T08:00:32.307Z,4696
2018-08-04T08:01:48.171Z,4728
2018-08-04T08:03:04.095Z,4730
2018-08-04T08:04:20.017Z,4771
2018-08-04T08:05:35.936Z,4771
2018-08-04T08:06:51.856Z,4821
2018-08-04T08:08:07.773Z,4839
2018-08-04T08:09:23.659Z,4881
2018-08-04T08:10:39.801Z,4896
2018-08-04T08:11:55.572Z,4910
2018-08-04T08:13:11.521Z,4953
2018-08-04T08:14:27.427Z,4944
2018-08-04T08:15:43.356Z,4997
2018-08-04T08:16:59.244Z,5010
2018-08-04T08:18:15.181Z,5020
2018-08-04T08:19:31.205Z,5055
2018-08-04T08:20:47.076Z,5053
2018-08-04T08:22:02.965Z,5077
2018-08-04T08:23:18.935Z,5107
2018-08-04T08:24:34.729Z,5130
2018-08-04T08:25:50.674Z,5139
2018-08-04T08:27:06.547Z,5208
2018-08-04T08:28:22.456Z,5228
2018-08-04T08:29:38.382Z,5234
2018-08-04T08:30:54.281Z,5258
2018-08-04T08:32:10.235Z,5318
2018-08-04T08:33:26.177Z,5277
2018-08-04T08:34:42.253Z,5365
2018-08-04T08:35:58.454Z,5380
2018-08-04T08:37:15.327Z,5413
2018-08-04T08:38:31.223Z,5459
2018-08-04T08:39:47.124Z,5485
2018-08-04T08:41:03.048Z,5503
2018-08-04T08:42:18.923Z,5534
2018-08-04T08:43:34.953Z,5538
2018-08-04T08:44:50.884Z,5557
2018-08-04T08:46:06.773Z,5634
2018-08-04T08:47:22.666Z,5595
2018-08-04T08:48:38.609Z,5641
2018-08-04T08:49:54.558Z,5601
2018-08-04T08:51:10.501Z,5607
2018-08-04T08:52:26.462Z,5644
2018-08-04T08:53:42.585Z,5653
2018-08-04T08:54:58.386Z,5681
2018-08-04T08:56:14.477Z,5713
2018-08-04T08:57:30.376Z,5703
2018-08-04T08:58:46.283Z,5770
2018-08-04T09:00:02.249Z,5774
2018-08-04T09:01:18.143Z,5760
2018-08-04T09:02:34.194Z,5788
2018-08-04T09:03:50.127Z,5805
2018-08-04T09:05:06.128Z,5815
2018-08-04T09:06:22.139Z,5881
2018-08-04T09:07:38.054Z,5908
2018-08-04T09:08:53.931Z,5930
2018-08-04T09:10:09.834Z,5961
2018-08-04T09:11:25.746Z,5931
2018-08-04T09:12:41.650Z,5996
2018-08-04T09:13:57.580Z,6007
2018-08-04T09:15:13.524Z,5998
2018-08-04T09:16:29.438Z,6033
2018-08-04T09:17:45.339Z,6084
2018-08-04T09:19:01.209Z,6088
2018-08-04T09:20:17.084Z,6085
2018-08-04T09:21:33.015Z,6146
2018-08-04T09:22:48.895Z,6196
2018-08-04T09:24:04.790Z,6220
2018-08-04T09:25:20.723Z,6230
2018-08-04T09:26:36.743Z,6254
2018-08-04T09:27:52.610Z,6329
2018-08-04T09:29:08.519Z,6297
2018-08-04T09:30:24.389Z,6311
2018-08-04T09:31:40.319Z,6311
2018-08-04T09:32:57.195Z,6331
2018-08-04T09:34:13.145Z,6311
2018-08-04T09:35:29.067Z,6352
2018-08-04T09:36:44.967Z,6398
2018-08-04T09:38:00.886Z,6427
2018-08-04T09:39:16.810Z,6475
2018-08-04T09:40:32.738Z,6481
2018-08-04T09:41:48.673Z,6490
2018-08-04T09:43:04.582Z,6500
2018-08-04T09:44:20.466Z,6522
2018-08-04T09:45:36.384Z,6555
2018-08-04T09:46:52.252Z,6580
2018-08-04T09:48:08.181Z,6616
2018-08-04T09:49:24.088Z,6652
2018-08-04T09:50:39.983Z,6643
2018-08-04T09:51:55.893Z,6628
2018-08-04T09:53:12.836Z,6695
2018-08-04T09:54:28.849Z,6731
2018-08-04T09:55:44.777Z,6752
2018-08-04T09:57:00.731Z,6792
2018-08-04T09:58:16.712Z,6808
2018-08-04T09:59:32.632Z,6857
2018-08-04T10:00:48.583Z,6918
2018-08-04T10:02:04.556Z,6911
2018-08-04T10:03:20.431Z,6909
2018-08-04T10:04:36.362Z,6924
2018-08-04T10:05:52.253Z,6931
2018-08-04T10:07:08.203Z,6931
2018-08-04T10:08:24.170Z,6941
2018-08-04T10:09:40.115Z,6985
2018-08-04T10:10:56.032Z,6988
2018-08-04T10:13:52.794Z,7034
2018-08-04T10:18:05.171Z,7066
2018-08-04T10:19:21.282Z,7090
2018-08-04T10:20:37.246Z,7061
2018-08-04T10:21:53.141Z,7097
2018-08-04T10:23:09.054Z,7106
2018-08-04T10:24:24.962Z,7155
2018-08-04T10:25:40.906Z,7184
2018-08-04T10:26:56.803Z,7176
2018-08-04T10:28:12.703Z,7245
2018-08-04T10:29:28.640Z,7255
2018-08-04T10:30:44.556Z,7277
2018-08-04T10:32:00.543Z,7330
2018-08-04T10:33:16.438Z,7383
2018-08-04T10:34:32.375Z,7454
2018-08-04T10:35:48.567Z,7453
2018-08-04T10:37:04.490Z,7488
2018-08-04T10:38:20.404Z,7575
2018-08-04T10:39:36.323Z,7597
2018-08-04T10:40:52.250Z,7598
2018-08-04T10:42:08.170Z,7622
2018-08-04T10:43:24.262Z,7691
2018-08-04T10:44:40.158Z,7732
2018-08-04T10:45:56.070Z,7743
2018-08-04T10:47:12.083Z,7764
2018-08-04T10:48:28.127Z,7803
2018-08-04T10:49:45.150Z,7815
2018-08-04T10:51:01.119Z,7821
2018-08-04T10:52:17.043Z,7869
2018-08-04T10:53:32.947Z,7939
2018-08-04T10:54:48.855Z,7929
2018-08-04T10:56:04.829Z,8032
2018-08-04T10:57:20.757Z,7984
2018-08-04T10:58:36.705Z,7993
2018-08-04T10:59:52.742Z,8018
2018-08-04T11:01:08.671Z,8076
2018-08-04T11:02:24.688Z,8091
2018-08-04T11:03:40.648Z,8166
2018-08-04T11:04:56.540Z,8186
2018-08-04T11:06:12.463Z,8213
2018-08-04T11:07:28.519Z,8287
2018-08-04T11:08:44.537Z,8249
2018-08-04T11:10:00.544Z,8250
2018-08-04T11:11:16.493Z,8286
2018-08-04T11:12:32.478Z,7030
2018-08-04T11:13:48.319Z,6151
2018-08-04T11:15:04.264Z,8496
2018-08-04T11:16:20.145Z,7244
2018-08-04T11:17:36.145Z,6667
2018-08-04T11:18:52.033Z,8425
2018-08-04T11:20:08.069Z,8522
2018-08-04T11:21:24.023Z,8490
2018-08-04T11:22:39.948Z,8530
2018-08-04T11:23:55.830Z,8565
2018-08-04T11:25:11.812Z,8576
2018-08-04T11:26:27.744Z,8616
2018-08-04T11:27:43.693Z,8686
2018-08-04T11:28:59.610Z,8762
2018-08-04T11:30:15.683Z,8839
2018-08-04T11:31:31.695Z,8909
2018-08-04T11:32:47.634Z,8926
2018-08-04T11:34:03.545Z,8979
2018-08-04T11:35:19.457Z,9099
2018-08-04T11:36:35.332Z,9134
2018-08-04T11:37:51.323Z,9224
2018-08-04T11:39:07.261Z,9363
2018-08-04T11:40:23.165Z,9448
2018-08-04T11:41:39.213Z,9490
2018-08-04T11:42:55.208Z,9574
2018-08-04T11:44:11.234Z,9615
2018-08-04T11:45:27.152Z,9711
2018-08-04T11:46:43.089Z,9761
2018-08-04T11:47:59.010Z,9869
2018-08-04T11:49:14.994Z,9980
2018-08-04T11:50:30.927Z,10068
2018-08-04T11:51:46.942Z,10134
2018-08-04T11:53:02.870Z,10244
2018-08-04T11:54:18.826Z,10364
2018-08-04T11:55:34.822Z,10502
2018-08-04T11:56:50.822Z,10607
2018-08-04T11:58:06.723Z,10644
2018-08-04T11:59:22.675Z,10730
2018-08-04T12:00:45.668Z,10843
2018-08-04T12:02:01.719Z,10990
2018-08-04T12:03:17.636Z,11168
2018-08-04T12:04:33.512Z,11410
2018-08-04T12:05:49.761Z,11664
2018-08-04T12:07:05.727Z,11934
2018-08-04T12:08:21.645Z,12104
2018-08-04T12:09:37.618Z,12323
2018-08-04T12:10:53.547Z,12607
2018-08-04T12:12:09.557Z,12865
2018-08-04T12:13:25.571Z,13144
2018-08-04T12:14:41.535Z,13382
2018-08-04T12:15:57.518Z,13568
2018-08-04T12:17:13.540Z,13599
2018-08-04T12:18:29.441Z,13503
2018-08-04T12:19:45.378Z,13279
2018-08-04T12:21:01.473Z,13169
2018-08-04T12:22:17.526Z,13067
2018-08-04T12:23:33.462Z,13166
2018-08-04T12:24:49.405Z,13009
2018-08-04T12:26:05.537Z,12334
2018-08-04T12:27:21.538Z,11867
2018-08-04T12:28:37.453Z,12714
2018-08-04T12:29:53.518Z,11924
2018-08-04T12:31:09.689Z,11929
2018-08-04T12:32:25.622Z,11814
2018-08-04T12:33:42.405Z,11669
2018-08-04T12:36:38.909Z,11736
2018-08-04T12:37:54.829Z,10965
2018-08-04T12:39:10.846Z,11070
2018-08-04T12:40:26.904Z,11696
2018-08-04T12:41:43.054Z,12028
2018-08-04T12:42:59.062Z,12257
2018-08-04T12:44:14.982Z,12163
2018-08-04T12:45:31.026Z,11895
2018-08-04T12:46:46.924Z,11516
2018-08-04T12:48:02.953Z,11182
2018-08-04T12:49:18.978Z,10793
2018-08-04T12:50:34.909Z,10207
2018-08-04T12:51:50.943Z,9645
2018-08-04T12:53:06.947Z,9200
2018-08-04T12:54:23.011Z,9006
2018-08-04T12:55:38.891Z,8743
2018-08-04T12:56:54.828Z,8518
2018-08-04T12:58:10.716Z,8330
2018-08-04T12:59:26.672Z,8311
2018-08-04T13:00:42.569Z,8268
2018-08-04T13:01:58.580Z,8351
2018-08-04T13:03:14.678Z,8776
2018-08-04T13:04:30.639Z,9167
2018-08-04T13:05:46.527Z,9255
2018-08-04T13:07:03.438Z,9301
2018-08-04T13:08:19.361Z,9290
2018-08-04T13:09:35.375Z,6012
2018-08-04T13:10:51.343Z,8960
2018-08-04T13:12:07.296Z,9024
2018-08-04T13:13:23.300Z,9010
2018-08-04T13:14:39.227Z,9038
2018-08-04T13:15:55.424Z,9155
2018-08-04T13:17:11.461Z,9250
2018-08-04T13:18:27.524Z,9379
2018-08-04T13:19:43.501Z,9491
2018-08-04T13:20:59.515Z,9649
2018-08-04T13:22:15.573Z,9937
2018-08-04T13:23:31.762Z,10034
2018-08-04T13:24:47.863Z,10174
2018-08-04T13:26:03.787Z,10290
2018-08-04T13:27:19.674Z,10294
2018-08-04T13:28:35.645Z,10528
2018-08-04T13:29:51.595Z,10641
2018-08-04T13:31:07.648Z,10693
2018-08-04T13:32:23.665Z,9382
2018-08-04T13:33:39.552Z,11450
2018-08-04T13:34:55.529Z,11731
2018-08-04T13:36:11.554Z,11869
2018-08-04T13:37:27.520Z,12107
2018-08-04T13:38:43.447Z,12351
2018-08-04T13:39:59.335Z,12377
2018-08-04T13:41:15.255Z,12262
2018-08-04T13:42:31.195Z,12086
2018-08-04T13:43:47.092Z,12239
2018-08-04T13:45:03.086Z,12470
2018-08-04T13:46:18.999Z,12377
2018-08-04T13:47:34.928Z,12518
2018-08-04T13:48:50.829Z,13072
2018-08-04T13:50:06.744Z,13522
2018-08-04T13:51:22.643Z,13445
2018-08-04T13:52:38.609Z,13400
2018-08-04T13:53:54.488Z,13255
2018-08-04T13:55:10.493Z,13237
2018-08-04T13:56:26.585Z,13300
2018-08-04T13:57:42.525Z,13491
2018-08-04T14:00:39.321Z,13550
2018-08-04T14:01:55.804Z,12389
2018-08-04T14:03:11.752Z,12392
2018-08-04T14:04:27.782Z,12522
2018-08-04T14:05:44.009Z,12190
2018-08-04T14:07:00.082Z,11639
2018-08-04T14:08:16.041Z,11178
2018-08-04T14:09:31.923Z,10326
2018-08-04T14:10:47.873Z,9428
2018-08-04T14:12:03.935Z,9003
2018-08-04T14:13:19.845Z,8939
2018-08-04T14:14:35.788Z,8926
2018-08-04T14:15:51.918Z,8483
2018-08-04T14:17:07.842Z,8202
2018-08-04T14:18:23.823Z,8139
2018-08-04T14:19:39.745Z,8542
2018-08-04T14:20:55.728Z,8747
2018-08-04T14:22:11.634Z,8898
2018-08-04T14:23:27.579Z,9026
2018-08-04T14:24:43.565Z,9230
2018-08-04T14:25:59.520Z,9347
2018-08-04T14:27:15.644Z,9436
2018-08-04T14:28:31.775Z,9627
2018-08-04T14:29:47.663Z,9776
2018-08-04T14:31:03.583Z,9959
2018-08-04T14:32:19.540Z,10052
2018-08-04T14:33:35.457Z,10198
2018-08-04T14:34:51.467Z,10267
2018-08-04T14:36:07.382Z,10358
2018-08-04T14:37:23.355Z,10483
2018-08-04T14:38:39.345Z,10588
2018-08-04T14:39:55.254Z,10655
2018-08-04T14:41:11.304Z,10780
2018-08-04T14:42:27.222Z,10960
2018-08-04T14:43:43.176Z,11178
2018-08-04T14:44:59.087Z,11372
2018-08-04T14:46:15.061Z,11494
2018-08-04T14:47:31.040Z,11626
2018-08-04T14:48:46.958Z,11819
2018-08-04T14:50:02.913Z,12112
2018-08-04T14:51:19.010Z,12452
2018-08-04T14:52:34.950Z,12649
2018-08-04T14:53:50.884Z,12842
2018-08-04T14:55:06.873Z,12904
2018-08-04T14:56:22.775Z,12950
2018-08-04T14:57:38.787Z,12848
2018-08-04T14:58:54.737Z,12751
2018-08-04T15:00:10.729Z,12439
2018-08-04T15:01:26.760Z,12552
2018-08-04T15:02:42.891Z,11703
2018-08-04T15:03:58.833Z,12091
2018-08-04T15:05:14.764Z,11719
2018-08-04T15:06:30.799Z,11298
2018-08-04T15:07:46.902Z,11255
2018-08-04T15:09:02.808Z,11251
2018-08-04T15:10:18.705Z,11210
2018-08-04T15:11:34.689Z,10934
2018-08-04T15:12:50.683Z,10390
2018-08-04T15:14:06.725Z,10720
2018-08-04T15:15:22.671Z,10984
2018-08-04T15:16:38.659Z,10766
2018-08-04T15:17:54.690Z,10129
2018-08-04T15:19:10.669Z,9768
2018-08-04T15:20:26.790Z,9214
2018-08-04T15:21:42.711Z,8861
2018-08-04T15:22:58.672Z,8585
2018-08-04T15:24:14.572Z,8734
2018-08-04T15:25:30.507Z,8611
2018-08-04T15:26:46.423Z,8464
2018-08-04T15:28:02.355Z,8366
2018-08-04T15:29:18.368Z,8195
2018-08-04T15:30:34.473Z,8269
2018-08-04T15:31:50.395Z,8106
2018-08-04T15:33:06.339Z,7786
2018-08-04T15:34:22.275Z,7398
2018-08-04T15:35:38.245Z,7151
2018-08-04T15:36:54.249Z,6990
2018-08-04T15:38:10.170Z,7000
2018-08-04T15:39:26.148Z,6990
2018-08-04T15:40:42.047Z,6792
2018-08-04T15:41:58.036Z,6475
2018-08-04T15:43:13.953Z,6159
2018-08-04T15:44:29.883Z,6038
2018-08-04T15:45:45.915Z,5969
2018-08-04T15:47:01.876Z,6038
2018-08-04T15:48:17.775Z,6145
2018-08-04T15:49:33.661Z,6439
2018-08-04T15:50:49.589Z,6596
2018-08-04T15:52:05.642Z,6645
2018-08-04T15:53:21.689Z,6825
2018-08-04T15:54:37.671Z,7110
2018-08-04T15:55:53.618Z,7309
2018-08-04T15:57:09.550Z,7496
2018-08-04T15:58:25.458Z,7624
2018-08-04T15:59:41.392Z,7879
2018-08-04T16:00:57.326Z,8043
2018-08-04T16:02:13.336Z,8038
2018-08-04T16:03:30.276Z,8057
2018-08-04T16:04:46.219Z,7970
2018-08-04T16:06:02.184Z,7939
2018-08-04T16:07:18.262Z,7812
2018-08-04T16:08:34.320Z,7538
2018-08-04T16:09:50.305Z,7169
2018-08-04T16:11:06.313Z,7123
2018-08-04T16:12:22.205Z,7403
2018-08-04T16:13:38.193Z,7453
2018-08-04T16:14:54.166Z,7249
2018-08-04T16:16:10.088Z,6646
2018-08-04T16:17:26.087Z,6270
2018-08-04T16:18:42.133Z,6064
2018-08-04T16:19:58.074Z,6012
2018-08-04T16:21:13.989Z,6090
2018-08-04T16:22:29.971Z,6787
2018-08-04T16:23:45.883Z,7064
2018-08-04T16:25:01.802Z,7159
2018-08-04T16:26:17.819Z,7102
2018-08-04T16:27:33.763Z,6947
2018-08-04T16:28:49.636Z,6770
2018-08-04T16:30:05.591Z,6470
2018-08-04T16:31:21.590Z,6055
2018-08-04T16:32:37.553Z,5887
2018-08-04T16:33:53.447Z,5624
2018-08-04T16:35:09.454Z,5326
2018-08-04T16:36:25.425Z,5073
2018-08-04T16:37:41.406Z,4559
2018-08-04T16:38:57.327Z,4361
2018-08-04T16:40:13.290Z,4033
2018-08-04T16:41:29.245Z,3885
2018-08-04T16:42:45.103Z,3814
2018-08-04T16:44:01.082Z,3781
2018-08-04T16:45:16.977Z,3751
2018-08-04T16:46:33.047Z,3765
2018-08-04T16:47:48.979Z,4064
2018-08-04T16:49:05.042Z,4125
2018-08-04T16:50:21.000Z,4173
2018-08-04T16:51:37.015Z,4208
2018-08-04T16:52:52.945Z,4321
2018-08-04T16:54:08.947Z,4461
2018-08-04T16:55:24.894Z,4310
2018-08-04T16:56:40.798Z,4267
2018-08-04T16:57:56.721Z,4112
2018-08-04T16:59:12.739Z,3969
2018-08-04T17:00:28.646Z,3795
2018-08-04T17:01:44.652Z,3569
2018-08-04T17:03:00.538Z,3434
2018-08-04T17:04:16.461Z,3267
2018-08-04T17:05:32.388Z,3110
2018-08-04T17:06:48.408Z,2983
2018-08-04T17:08:04.355Z,2841
2018-08-04T17:09:20.328Z,2709
2018-08-04T17:10:36.333Z,2594
2018-08-04T17:11:52.250Z,2501
2018-08-04T17:13:08.237Z,2415
2018-08-04T17:14:24.297Z,2330
2018-08-04T17:15:40.238Z,2254
2018-08-04T17:16:56.259Z,2190
2018-08-04T17:18:12.495Z,2113
2018-08-04T17:19:28.595Z,2047
2018-08-04T17:20:44.531Z,1989